Share

Abisko, Sweden

8:56 PM CEST on April 24, 2014 (GMT +0200)
Bardu (ITROMSBA3) Elev 1663 ft | 68.66 °N, 18.88 °E | Change Station

Current weather conditions updated 11 minutes ago

Partly Cloudy
Partly Cloudy
35.0 °F
Feels Like 29 °F
N
7.0
Wind Variable Wind from SW
Gusts 10.0 mph
Sunrise 4:11 AM
Sunset 9:17 PM
Moon Waning Crescent

Tomorrow is forecast to be Much Cooler than today. A mix of late night rain/snow showers tomorrow night.

Pressure 30.30 in
Visibility 6.2 miles
Clouds Few 4000 ft
Windchill 29 °F
Dew Point 27 °F
Humidity 72%
Rainfall 0.00 in
Snow Depth Not available.
UV 0 out of 16
Pollen Not available.
Air Quality Not available.
Flu Activity Not available.
METAR ENDU 241850Z 31007KT 9999 FEW040 04/M01 Q1026

More Conditions Fewer Conditions

Pressure 30.30 in
Visibility 6.2 miles
Clouds Few 4000 ft
Windchill 29 °F
Dew Point 27 °F
Humidity 72%
Rainfall 0.00 in
Snow Depth Not available.
UV 0 out of 16
Pollen Not available.
Air Quality Not available.
Flu Activity Not available.
METAR ENDU 241850Z 31007KT 9999 FEW040 04/M01 Q1026

More Conditions Fewer Conditions

10-Day Weather Forecast

Almanac

Astronomy

Apr. 24, 2014 Rise Set
Actual Time 4:11 AM CEST 9:17 PM CEST
Civil Twilight 2:44 AM CEST 10:46 PM CEST
Nautical Twilight Sun does not rise Sun does not rise
Astronomical Twilight Sun does not rise Sun does not rise
Moon 3:52 AM CEST 1:40 PM CEST
Length of Visible Light 20h 01m
Length of Day
17h 05m
Tomorrow will be 8m 56s longer.
Waning Crescent, 23% of the Moon is Illuminated
Today
Waning Crescent
Apr 29
New
May 6
First Quarter
May 14
Full
May 21
Last Quarter

Today's Extremes

Country Highs Country Lows

Community

  • Sunset at Apalachicola Bay, Florida
    Sunset at Apalachicola Bay, Florida
  • Clouds mov'n in
    Clouds mov'n in
  • Stacked
    Stacked
  • clouds approaching Red Sox Nation
    clouds approaching Red Sox Nation
  • Balance
    Balance

WunderPhotos

Upload Photos

1,704,688 photos uploaded!

Nearby

Snow Depth

Not available.

Coastal Water Temperatures

Place Temperature
No Stations Reporting

Earthquake Activity

City Distance Mag. Time & Date
No recent earthquake activity has been reported nearby.
Minimum magnitude displayed is 2.5.

Nearby Weather Stations

Station Location Temp. Windchill Dew Point Humidity Wind Precip. Elev Updated Type
Bardu, Bardu 35.0 °F 29 °F 27 °F 72% SW  at  7.0 mph 0.00 in / hr 1663 ft 8:44 PM CEST Normal
STF Abisko, Abisko 36.7 °F 26 °F 16 °F 43% WNW  at  22.0 mph - / hr 2985 ft 6:57 PM CEST Normal

Show More Stations Show Fewer Stations

What do you think?

We're not finished. Please let us know what you like, what you don't like, and what you are still missing.